sensor_id;sensor_type;location;lat;lon;timestamp;temperature;humidity
2893;DHT22;1456;51.840;12.184;2023-07-29T00:01:45;18.70;99.90
2893;DHT22;1456;51.840;12.184;2023-07-29T00:04:11;18.70;99.90
2893;DHT22;1456;51.840;12.184;2023-07-29T00:06:37;18.80;99.90
2893;DHT22;1456;51.840;12.184;2023-07-29T00:09:03;18.70;99.90
2893;DHT22;1456;51.840;12.184;2023-07-29T00:11:29;18.70;99.90
2893;DHT22;1456;51.840;12.184;2023-07-29T00:13:55;18.70;99.90
2893;DHT22;1456;51.840;12.184;2023-07-29T00:16:21;18.70;99.90
2893;DHT22;1456;51.840;12.184;2023-07-29T00:18:48;18.80;99.90
2893;DHT22;1456;51.840;12.184;2023-07-29T00:21:13;18.80;99.90
2893;DHT22;1456;51.840;12.184;2023-07-29T00:23:40;19.00;99.90
2893;DHT22;1456;51.840;12.184;2023-07-29T00:26:06;19.00;99.90
2893;DHT22;1456;51.840;12.184;2023-07-29T00:28:31;19.00;99.90
2893;DHT22;1456;51.840;12.184;2023-07-29T00:30:58;19.20;99.90
2893;DHT22;1456;51.840;12.184;2023-07-29T00:33:24;19.20;99.90
2893;DHT22;1456;51.840;12.184;2023-07-29T00:35:50;19.20;99.90
2893;DHT22;1456;51.840;12.184;2023-07-29T00:38:16;19.20;99.90
2893;DHT22;1456;51.840;12.184;2023-07-29T00:40:41;19.30;99.90
2893;DHT22;1456;51.840;12.184;2023-07-29T00:43:07;19.40;99.90
2893;DHT22;1456;51.840;12.184;2023-07-29T00:45:35;19.50;99.90
2893;DHT22;1456;51.840;12.184;2023-07-29T00:48:02;19.50;99.90
2893;DHT22;1456;51.840;12.184;2023-07-29T00:50:29;19.60;99.90
2893;DHT22;1456;51.840;12.184;2023-07-29T00:52:56;19.60;99.90
2893;DHT22;1456;51.840;12.184;2023-07-29T00:55:22;19.70;99.90
2893;DHT22;1456;51.840;12.184;2023-07-29T00:57:50;19.70;99.90
2893;DHT22;1456;51.840;12.184;2023-07-29T01:00:18;19.80;99.90
2893;DHT22;1456;51.840;12.184;2023-07-29T01:02:45;19.80;99.90
2893;DHT22;1456;51.840;12.184;2023-07-29T01:05:13;19.60;99.90
2893;DHT22;1456;51.840;12.184;2023-07-29T01:07:58;19.60;99.90
2893;DHT22;1456;51.840;12.184;2023-07-29T01:10:54;19.70;99.90
2893;DHT22;1456;51.840;12.184;2023-07-29T01:13:28;19.70;99.90
2893;DHT22;1456;51.840;12.184;2023-07-29T01:16:01;19.60;99.90
2893;DHT22;1456;51.840;12.184;2023-07-29T01:18:36;19.70;99.90
2893;DHT22;1456;51.840;12.184;2023-07-29T01:21:08;19.80;99.90
2893;DHT22;1456;51.840;12.184;2023-07-29T01:23:35;19.80;99.90
2893;DHT22;1456;51.840;12.184;2023-07-29T01:26:03;19.80;99.90
2893;DHT22;1456;51.840;12.184;2023-07-29T01:28:30;19.80;99.90
2893;DHT22;1456;51.840;12.184;2023-07-29T01:31:20;19.70;99.90
2893;DHT22;1456;51.840;12.184;2023-07-29T01:33:56;19.40;99.90
2893;DHT22;1456;51.840;12.184;2023-07-29T01:36:23;19.40;99.90
2893;DHT22;1456;51.840;12.184;2023-07-29T01:38:53;19.30;99.90
2893;DHT22;1456;51.840;12.184;2023-07-29T01:41:20;19.30;99.90
2893;DHT22;1456;51.840;12.184;2023-07-29T01:43:47;19.20;99.90
2893;DHT22;1456;51.840;12.184;2023-07-29T01:46:17;19.10;99.90
2893;DHT22;1456;51.840;12.184;2023-07-29T01:48:42;19.10;99.90
2893;DHT22;1456;51.840;12.184;2023-07-29T01:51:11;19.10;99.90
2893;DHT22;1456;51.840;12.184;2023-07-29T01:53:38;19.00;99.90
2893;DHT22;1456;51.840;12.184;2023-07-29T01:56:04;19.00;99.90
2893;DHT22;1456;51.840;12.184;2023-07-29T01:58:29;19.00;99.90
2893;DHT22;1456;51.840;12.184;2023-07-29T02:00:56;18.90;99.90
2893;DHT22;1456;51.840;12.184;2023-07-29T02:03:22;18.90;99.90
2893;DHT22;1456;51.840;12.184;2023-07-29T02:05:47;19.00;99.90
2893;DHT22;1456;51.840;12.184;2023-07-29T02:08:13;19.00;99.90
2893;DHT22;1456;51.840;12.184;2023-07-29T02:10:39;19.10;99.90
2893;DHT22;1456;51.840;12.184;2023-07-29T02:13:05;19.20;99.90
2893;DHT22;1456;51.840;12.184;2023-07-29T02:15:33;19.20;99.90
2893;DHT22;1456;51.840;12.184;2023-07-29T02:17:59;19.30;99.90
2893;DHT22;1456;51.840;12.184;2023-07-29T02:20:24;19.30;99.90
2893;DHT22;1456;51.840;12.184;2023-07-29T02:22:50;19.30;99.90
2893;DHT22;1456;51.840;12.184;2023-07-29T02:25:16;19.30;99.90
2893;DHT22;1456;51.840;12.184;2023-07-29T02:27:41;19.10;99.90
2893;DHT22;1456;51.840;12.184;2023-07-29T02:30:07;19.20;99.90
2893;DHT22;1456;51.840;12.184;2023-07-29T02:32:35;19.20;99.90
2893;DHT22;1456;51.840;12.184;2023-07-29T02:35:01;19.20;99.90
2893;DHT22;1456;51.840;12.184;2023-07-29T02:37:27;19.10;99.90
2893;DHT22;1456;51.840;12.184;2023-07-29T02:39:52;19.00;99.90
2893;DHT22;1456;51.840;12.184;2023-07-29T02:42:18;19.00;99.90
2893;DHT22;1456;51.840;12.184;2023-07-29T02:44:43;19.00;99.90
2893;DHT22;1456;51.840;12.184;2023-07-29T02:47:09;18.90;99.90
2893;DHT22;1456;51.840;12.184;2023-07-29T02:49:35;18.80;99.90
2893;DHT22;1456;51.840;12.184;2023-07-29T02:52:03;18.70;99.90
2893;DHT22;1456;51.840;12.184;2023-07-29T02:54:28;18.50;99.90
2893;DHT22;1456;51.840;12.184;2023-07-29T02:56:55;18.30;99.90
2893;DHT22;1456;51.840;12.184;2023-07-29T02:59:21;18.30;99.90
2893;DHT22;1456;51.840;12.184;2023-07-29T03:01:47;18.20;99.90
2893;DHT22;1456;51.840;12.184;2023-07-29T03:04:13;18.20;99.90
2893;DHT22;1456;51.840;12.184;2023-07-29T03:06:39;18.20;99.90
2893;DHT22;1456;51.840;12.184;2023-07-29T03:09:05;18.20;99.90
2893;DHT22;1456;51.840;12.184;2023-07-29T03:11:31;18.30;99.90
2893;DHT22;1456;51.840;12.184;2023-07-29T03:13:57;18.30;99.90
2893;DHT22;1456;51.840;12.184;2023-07-29T03:16:24;18.30;99.90
2893;DHT22;1456;51.840;12.184;2023-07-29T03:18:49;18.40;99.90
2893;DHT22;1456;51.840;12.184;2023-07-29T03:21:15;18.50;99.90
2893;DHT22;1456;51.840;12.184;2023-07-29T03:23:41;18.60;99.90
2893;DHT22;1456;51.840;12.184;2023-07-29T03:26:08;18.60;99.90
2893;DHT22;1456;51.840;12.184;2023-07-29T03:28:39;18.60;99.90
2893;DHT22;1456;51.840;12.184;2023-07-29T03:31:05;18.60;99.90
2893;DHT22;1456;51.840;12.184;2023-07-29T03:33:31;18.60;99.90
2893;DHT22;1456;51.840;12.184;2023-07-29T03:35:57;18.60;99.90
2893;DHT22;1456;51.840;12.184;2023-07-29T03:38:22;18.70;99.90
2893;DHT22;1456;51.840;12.184;2023-07-29T03:40:50;18.70;99.90
2893;DHT22;1456;51.840;12.184;2023-07-29T03:43:15;18.70;99.90
2893;DHT22;1456;51.840;12.184;2023-07-29T03:45:41;18.60;99.90
2893;DHT22;1456;51.840;12.184;2023-07-29T03:48:07;18.50;99.90
2893;DHT22;1456;51.840;12.184;2023-07-29T03:50:37;18.40;99.90
2893;DHT22;1456;51.840;12.184;2023-07-29T03:53:03;18.30;99.90
2893;DHT22;1456;51.840;12.184;2023-07-29T03:55:29;18.30;99.90
2893;DHT22;1456;51.840;12.184;2023-07-29T03:57:56;18.40;99.90
2893;DHT22;1456;51.840;12.184;2023-07-29T04:00:24;18.40;99.90
2893;DHT22;1456;51.840;12.184;2023-07-29T04:02:49;18.40;99.90
2893;DHT22;1456;51.840;12.184;2023-07-29T04:05:16;18.40;99.90
2893;DHT22;1456;51.840;12.184;2023-07-29T04:07:42;18.40;99.90
2893;DHT22;1456;51.840;12.184;2023-07-29T04:10:09;18.40;99.90
2893;DHT22;1456;51.840;12.184;2023-07-29T04:12:36;18.40;99.90
2893;DHT22;1456;51.840;12.184;2023-07-29T04:15:02;18.40;99.90
2893;DHT22;1456;51.840;12.184;2023-07-29T04:17:27;18.40;99.90
2893;DHT22;1456;51.840;12.184;2023-07-29T04:19:53;18.40;99.90
2893;DHT22;1456;51.840;12.184;2023-07-29T04:22:20;18.40;99.90
2893;DHT22;1456;51.840;12.184;2023-07-29T04:24:46;18.50;99.90
2893;DHT22;1456;51.840;12.184;2023-07-29T04:27:12;18.50;99.90
2893;DHT22;1456;51.840;12.184;2023-07-29T04:29:37;18.60;99.90
2893;DHT22;1456;51.840;12.184;2023-07-29T04:32:04;18.70;99.90
2893;DHT22;1456;51.840;12.184;2023-07-29T04:34:29;18.80;99.90
2893;DHT22;1456;51.840;12.184;2023-07-29T04:36:55;19.00;99.90
2893;DHT22;1456;51.840;12.184;2023-07-29T04:39:21;19.10;99.90
2893;DHT22;1456;51.840;12.184;2023-07-29T04:41:46;19.10;99.90
2893;DHT22;1456;51.840;12.184;2023-07-29T04:44:12;19.10;99.90
2893;DHT22;1456;51.840;12.184;2023-07-29T04:46:38;19.10;99.90
2893;DHT22;1456;51.840;12.184;2023-07-29T04:49:04;19.00;99.90
2893;DHT22;1456;51.840;12.184;2023-07-29T04:51:30;19.00;99.90
2893;DHT22;1456;51.840;12.184;2023-07-29T04:53:57;19.00;99.90
2893;DHT22;1456;51.840;12.184;2023-07-29T04:56:23;19.10;99.90
2893;DHT22;1456;51.840;12.184;2023-07-29T04:58:49;19.10;99.90
2893;DHT22;1456;51.840;12.184;2023-07-29T05:01:16;19.10;99.90
2893;DHT22;1456;51.840;12.184;2023-07-29T05:03:41;19.20;99.90
2893;DHT22;1456;51.840;12.184;2023-07-29T05:06:08;19.30;99.90
2893;DHT22;1456;51.840;12.184;2023-07-29T05:08:34;19.40;99.90
2893;DHT22;1456;51.840;12.184;2023-07-29T05:11:00;19.60;99.90
2893;DHT22;1456;51.840;12.184;2023-07-29T05:13:26;19.80;99.90
2893;DHT22;1456;51.840;12.184;2023-07-29T05:15:51;20.10;99.90
2893;DHT22;1456;51.840;12.184;2023-07-29T05:18:17;20.30;99.90
2893;DHT22;1456;51.840;12.184;2023-07-29T05:20:43;20.50;99.90
2893;DHT22;1456;51.840;12.184;2023-07-29T05:23:09;20.60;99.90
2893;DHT22;1456;51.840;12.184;2023-07-29T05:25:34;20.70;99.90
2893;DHT22;1456;51.840;12.184;2023-07-29T05:28:01;20.90;99.90
2893;DHT22;1456;51.840;12.184;2023-07-29T05:30:28;20.90;99.90
2893;DHT22;1456;51.840;12.184;2023-07-29T05:32:57;21.00;99.90
2893;DHT22;1456;51.840;12.184;2023-07-29T05:35:24;21.10;99.90
2893;DHT22;1456;51.840;12.184;2023-07-29T05:37:50;21.10;99.90
2893;DHT22;1456;51.840;12.184;2023-07-29T05:40:16;21.20;99.90
2893;DHT22;1456;51.840;12.184;2023-07-29T05:42:43;21.50;99.90
2893;DHT22;1456;51.840;12.184;2023-07-29T05:45:13;21.70;99.90
2893;DHT22;1456;51.840;12.184;2023-07-29T05:47:39;21.70;99.90
2893;DHT22;1456;51.840;12.184;2023-07-29T05:50:05;21.80;99.90
2893;DHT22;1456;51.840;12.184;2023-07-29T05:52:34;22.00;99.90
2893;DHT22;1456;51.840;12.184;2023-07-29T05:55:00;22.10;99.90
2893;DHT22;1456;51.840;12.184;2023-07-29T05:57:26;22.20;99.90
2893;DHT22;1456;51.840;12.184;2023-07-29T05:59:51;22.30;99.90
2893;DHT22;1456;51.840;12.184;2023-07-29T06:02:17;22.20;99.90
2893;DHT22;1456;51.840;12.184;2023-07-29T06:04:44;22.20;99.90
2893;DHT22;1456;51.840;12.184;2023-07-29T06:07:09;22.30;99.90
2893;DHT22;1456;51.840;12.184;2023-07-29T06:09:35;22.50;99.90
2893;DHT22;1456;51.840;12.184;2023-07-29T06:12:01;22.40;99.90
2893;DHT22;1456;51.840;12.184;2023-07-29T06:14:27;22.10;99.90
2893;DHT22;1456;51.840;12.184;2023-07-29T06:16:53;22.10;99.90
2893;DHT22;1456;51.840;12.184;2023-07-29T06:19:20;22.10;99.90
2893;DHT22;1456;51.840;12.184;2023-07-29T06:21:46;22.10;99.90
2893;DHT22;1456;51.840;12.184;2023-07-29T06:24:12;22.20;99.90
2893;DHT22;1456;51.840;12.184;2023-07-29T06:26:38;22.20;99.90
2893;DHT22;1456;51.840;12.184;2023-07-29T06:29:04;22.30;99.90
2893;DHT22;1456;51.840;12.184;2023-07-29T06:31:30;22.60;99.90
2893;DHT22;1456;51.840;12.184;2023-07-29T06:33:59;22.90;99.90
2893;DHT22;1456;51.840;12.184;2023-07-29T06:36:24;23.10;99.90
2893;DHT22;1456;51.840;12.184;2023-07-29T06:38:51;23.20;99.90
2893;DHT22;1456;51.840;12.184;2023-07-29T06:41:18;23.50;99.90
2893;DHT22;1456;51.840;12.184;2023-07-29T06:43:43;23.50;99.90
2893;DHT22;1456;51.840;12.184;2023-07-29T06:46:09;23.60;99.90
2893;DHT22;1456;51.840;12.184;2023-07-29T06:48:35;23.50;99.90
2893;DHT22;1456;51.840;12.184;2023-07-29T06:51:00;23.30;99.90
2893;DHT22;1456;51.840;12.184;2023-07-29T06:53:27;23.60;99.90
2893;DHT22;1456;51.840;12.184;2023-07-29T06:55:53;23.40;99.90
2893;DHT22;1456;51.840;12.184;2023-07-29T06:58:19;23.30;99.90
2893;DHT22;1456;51.840;12.184;2023-07-29T07:00:45;23.60;99.90
2893;DHT22;1456;51.840;12.184;2023-07-29T07:03:11;23.60;99.90
2893;DHT22;1456;51.840;12.184;2023-07-29T07:05:36;24.00;99.90
2893;DHT22;1456;51.840;12.184;2023-07-29T07:08:02;24.20;99.90
2893;DHT22;1456;51.840;12.184;2023-07-29T07:10:29;24.60;99.90
2893;DHT22;1456;51.840;12.184;2023-07-29T07:12:55;25.10;99.90
2893;DHT22;1456;51.840;12.184;2023-07-29T07:15:20;24.90;99.90
2893;DHT22;1456;51.840;12.184;2023-07-29T07:17:46;24.50;99.90
2893;DHT22;1456;51.840;12.184;2023-07-29T07:20:12;24.60;99.90
2893;DHT22;1456;51.840;12.184;2023-07-29T07:22:37;24.60;99.90
2893;DHT22;1456;51.840;12.184;2023-07-29T07:25:03;24.70;99.90
2893;DHT22;1456;51.840;12.184;2023-07-29T07:27:29;24.80;99.90
2893;DHT22;1456;51.840;12.184;2023-07-29T07:29:55;24.60;99.90
2893;DHT22;1456;51.840;12.184;2023-07-29T07:32:21;25.00;99.90
2893;DHT22;1456;51.840;12.184;2023-07-29T07:34:47;25.00;99.90
2893;DHT22;1456;51.840;12.184;2023-07-29T07:37:13;24.50;99.90
2893;DHT22;1456;51.840;12.184;2023-07-29T07:39:39;24.20;99.90
2893;DHT22;1456;51.840;12.184;2023-07-29T07:42:05;24.10;99.90
2893;DHT22;1456;51.840;12.184;2023-07-29T07:44:31;24.30;99.90
2893;DHT22;1456;51.840;12.184;2023-07-29T07:46:57;24.60;99.90
2893;DHT22;1456;51.840;12.184;2023-07-29T07:49:25;24.70;99.90
2893;DHT22;1456;51.840;12.184;2023-07-29T07:51:50;24.60;99.90
2893;DHT22;1456;51.840;12.184;2023-07-29T07:54:16;24.70;99.90
2893;DHT22;1456;51.840;12.184;2023-07-29T07:56:43;24.60;99.90
2893;DHT22;1456;51.840;12.184;2023-07-29T07:59:08;24.40;99.90
2893;DHT22;1456;51.840;12.184;2023-07-29T08:01:38;24.50;99.90
2893;DHT22;1456;51.840;12.184;2023-07-29T08:04:04;24.10;99.90
2893;DHT22;1456;51.840;12.184;2023-07-29T08:06:30;23.80;99.90
2893;DHT22;1456;51.840;12.184;2023-07-29T08:08:58;23.30;99.90
2893;DHT22;1456;51.840;12.184;2023-07-29T08:11:25;23.10;99.90
2893;DHT22;1456;51.840;12.184;2023-07-29T08:13:51;23.30;99.90
2893;DHT22;1456;51.840;12.184;2023-07-29T08:16:17;23.50;99.90
2893;DHT22;1456;51.840;12.184;2023-07-29T08:18:43;23.80;99.90
2893;DHT22;1456;51.840;12.184;2023-07-29T08:21:09;24.30;99.90
2893;DHT22;1456;51.840;12.184;2023-07-29T08:23:36;24.70;99.90
2893;DHT22;1456;51.840;12.184;2023-07-29T08:26:03;24.80;99.90
2893;DHT22;1456;51.840;12.184;2023-07-29T08:28:33;24.30;99.90
2893;DHT22;1456;51.840;12.184;2023-07-29T08:30:59;24.40;99.90
2893;DHT22;1456;51.840;12.184;2023-07-29T08:33:25;24.40;99.90
2893;DHT22;1456;51.840;12.184;2023-07-29T08:35:51;24.50;99.90
2893;DHT22;1456;51.840;12.184;2023-07-29T08:38:17;24.90;99.90
2893;DHT22;1456;51.840;12.184;2023-07-29T08:40:50;25.30;99.90
2893;DHT22;1456;51.840;12.184;2023-07-29T08:43:19;25.00;99.90
2893;DHT22;1456;51.840;12.184;2023-07-29T08:45:47;25.00;99.90
2893;DHT22;1456;51.840;12.184;2023-07-29T08:48:15;24.70;99.90
2893;DHT22;1456;51.840;12.184;2023-07-29T08:50:45;24.70;99.90
2893;DHT22;1456;51.840;12.184;2023-07-29T08:53:12;24.80;99.90
2893;DHT22;1456;51.840;12.184;2023-07-29T08:55:39;24.50;99.90
2893;DHT22;1456;51.840;12.184;2023-07-29T08:58:05;24.50;99.90
2893;DHT22;1456;51.840;12.184;2023-07-29T09:00:31;24.60;99.90
2893;DHT22;1456;51.840;12.184;2023-07-29T09:02:58;24.50;99.90
2893;DHT22;1456;51.840;12.184;2023-07-29T09:05:29;24.50;99.90
2893;DHT22;1456;51.840;12.184;2023-07-29T09:07:55;24.60;99.90
2893;DHT22;1456;51.840;12.184;2023-07-29T09:10:22;24.70;99.90
2893;DHT22;1456;51.840;12.184;2023-07-29T09:12:49;25.00;99.90
2893;DHT22;1456;51.840;12.184;2023-07-29T09:15:29;24.80;99.90
2893;DHT22;1456;51.840;12.184;2023-07-29T09:17:59;25.30;99.90
2893;DHT22;1456;51.840;12.184;2023-07-29T09:20:33;25.50;99.90
2893;DHT22;1456;51.840;12.184;2023-07-29T09:22:59;25.30;99.90
2893;DHT22;1456;51.840;12.184;2023-07-29T09:25:28;24.80;99.90
2893;DHT22;1456;51.840;12.184;2023-07-29T09:28:08;24.70;99.90
2893;DHT22;1456;51.840;12.184;2023-07-29T09:30:39;24.20;99.90
2893;DHT22;1456;51.840;12.184;2023-07-29T09:33:06;23.80;99.90
2893;DHT22;1456;51.840;12.184;2023-07-29T09:35:36;23.50;99.90
2893;DHT22;1456;51.840;12.184;2023-07-29T09:38:03;23.30;99.90
2893;DHT22;1456;51.840;12.184;2023-07-29T09:40:37;23.20;99.90
2893;DHT22;1456;51.840;12.184;2023-07-29T09:43:04;23.20;99.90
2893;DHT22;1456;51.840;12.184;2023-07-29T09:45:33;23.10;99.90
2893;DHT22;1456;51.840;12.184;2023-07-29T09:47:59;23.20;99.90
2893;DHT22;1456;51.840;12.184;2023-07-29T09:50:27;23.20;99.90
2893;DHT22;1456;51.840;12.184;2023-07-29T09:52:56;23.20;99.90
2893;DHT22;1456;51.840;12.184;2023-07-29T09:55:24;23.50;99.90
2893;DHT22;1456;51.840;12.184;2023-07-29T09:57:59;23.70;99.90
2893;DHT22;1456;51.840;12.184;2023-07-29T10:00:32;23.70;99.90
2893;DHT22;1456;51.840;12.184;2023-07-29T10:03:00;23.70;99.90
2893;DHT22;1456;51.840;12.184;2023-07-29T10:05:27;23.50;99.90
2893;DHT22;1456;51.840;12.184;2023-07-29T10:07:54;23.40;99.90
2893;DHT22;1456;51.840;12.184;2023-07-29T10:10:23;23.50;99.90
2893;DHT22;1456;51.840;12.184;2023-07-29T10:12:50;23.50;99.90
2893;DHT22;1456;51.840;12.184;2023-07-29T10:15:18;23.60;99.90
2893;DHT22;1456;51.840;12.184;2023-07-29T10:17:46;23.20;99.90
2893;DHT22;1456;51.840;12.184;2023-07-29T10:20:11;22.80;99.90
2893;DHT22;1456;51.840;12.184;2023-07-29T10:22:42;22.50;99.90
2893;DHT22;1456;51.840;12.184;2023-07-29T10:25:22;22.30;99.90
2893;DHT22;1456;51.840;12.184;2023-07-29T10:27:57;22.00;99.90
2893;DHT22;1456;51.840;12.184;2023-07-29T10:30:28;21.10;99.90
2893;DHT22;1456;51.840;12.184;2023-07-29T10:32:58;20.40;99.90
2893;DHT22;1456;51.840;12.184;2023-07-29T10:35:25;20.20;99.90
2893;DHT22;1456;51.840;12.184;2023-07-29T10:37:52;20.30;99.90
2893;DHT22;1456;51.840;12.184;2023-07-29T10:40:18;20.40;99.90
2893;DHT22;1456;51.840;12.184;2023-07-29T10:43:03;20.70;99.90
2893;DHT22;1456;51.840;12.184;2023-07-29T10:45:41;21.00;99.90
2893;DHT22;1456;51.840;12.184;2023-07-29T10:48:12;21.20;99.90
2893;DHT22;1456;51.840;12.184;2023-07-29T10:50:39;21.60;99.90
2893;DHT22;1456;51.840;12.184;2023-07-29T10:53:05;21.70;99.90
2893;DHT22;1456;51.840;12.184;2023-07-29T10:55:35;21.80;99.90
2893;DHT22;1456;51.840;12.184;2023-07-29T10:58:15;21.70;99.90
2893;DHT22;1456;51.840;12.184;2023-07-29T11:00:43;21.80;99.90
2893;DHT22;1456;51.840;12.184;2023-07-29T11:03:12;22.00;99.90
2893;DHT22;1456;51.840;12.184;2023-07-29T11:05:53;22.70;99.90
2893;DHT22;1456;51.840;12.184;2023-07-29T11:08:30;23.00;99.90
2893;DHT22;1456;51.840;12.184;2023-07-29T11:13:31;23.10;99.90
2893;DHT22;1456;51.840;12.184;2023-07-29T11:15:59;23.40;99.90
2893;DHT22;1456;51.840;12.184;2023-07-29T11:18:33;24.10;99.90
2893;DHT22;1456;51.840;12.184;2023-07-29T11:21:00;24.70;99.90
2893;DHT22;1456;51.840;12.184;2023-07-29T11:23:32;25.40;99.90
2893;DHT22;1456;51.840;12.184;2023-07-29T11:25:59;26.00;99.90
2893;DHT22;1456;51.840;12.184;2023-07-29T11:28:27;26.50;99.90
2893;DHT22;1456;51.840;12.184;2023-07-29T11:30:54;26.90;99.90
2893;DHT22;1456;51.840;12.184;2023-07-29T11:33:21;27.20;99.90
2893;DHT22;1456;51.840;12.184;2023-07-29T11:35:49;27.20;99.90
2893;DHT22;1456;51.840;12.184;2023-07-29T11:38:19;27.50;99.90
2893;DHT22;1456;51.840;12.184;2023-07-29T11:41:00;27.50;99.90
2893;DHT22;1456;51.840;12.184;2023-07-29T11:43:28;27.50;99.90
2893;DHT22;1456;51.840;12.184;2023-07-29T11:45:54;27.70;99.90
2893;DHT22;1456;51.840;12.184;2023-07-29T11:48:31;27.90;99.90
2893;DHT22;1456;51.840;12.184;2023-07-29T11:50:57;27.90;99.90
2893;DHT22;1456;51.840;12.184;2023-07-29T11:53:27;27.90;99.90
2893;DHT22;1456;51.840;12.184;2023-07-29T11:55:54;28.00;99.90
2893;DHT22;1456;51.840;12.184;2023-07-29T11:58:20;28.60;99.90
2893;DHT22;1456;51.840;12.184;2023-07-29T12:00:46;28.90;99.90
2893;DHT22;1456;51.840;12.184;2023-07-29T12:03:14;28.70;99.90
2893;DHT22;1456;51.840;12.184;2023-07-29T12:05:43;27.90;99.90
2893;DHT22;1456;51.840;12.184;2023-07-29T12:08:12;27.60;99.90
2893;DHT22;1456;51.840;12.184;2023-07-29T12:10:39;26.90;99.90
2893;DHT22;1456;51.840;12.184;2023-07-29T12:13:08;26.50;99.90
2893;DHT22;1456;51.840;12.184;2023-07-29T12:15:33;25.80;99.90
2893;DHT22;1456;51.840;12.184;2023-07-29T12:17:59;25.00;99.90
2893;DHT22;1456;51.840;12.184;2023-07-29T12:20:29;24.00;99.90
2893;DHT22;1456;51.840;12.184;2023-07-29T12:22:58;22.90;99.90
2893;DHT22;1456;51.840;12.184;2023-07-29T12:25:26;22.40;99.90
2893;DHT22;1456;51.840;12.184;2023-07-29T12:27:54;22.10;99.90
2893;DHT22;1456;51.840;12.184;2023-07-29T12:30:24;22.30;99.90
2893;DHT22;1456;51.840;12.184;2023-07-29T12:32:52;22.60;99.90
2893;DHT22;1456;51.840;12.184;2023-07-29T12:35:18;22.90;99.90
2893;DHT22;1456;51.840;12.184;2023-07-29T12:37:47;22.60;99.90
2893;DHT22;1456;51.840;12.184;2023-07-29T12:40:24;22.50;99.90
2893;DHT22;1456;51.840;12.184;2023-07-29T12:42:51;22.90;99.90
2893;DHT22;1456;51.840;12.184;2023-07-29T12:45:18;23.00;99.90
2893;DHT22;1456;51.840;12.184;2023-07-29T12:47:44;23.30;99.90
2893;DHT22;1456;51.840;12.184;2023-07-29T12:50:10;23.70;99.90
2893;DHT22;1456;51.840;12.184;2023-07-29T12:52:36;24.50;99.90
2893;DHT22;1456;51.840;12.184;2023-07-29T12:55:02;26.20;99.90
2893;DHT22;1456;51.840;12.184;2023-07-29T12:57:28;27.60;99.90
2893;DHT22;1456;51.840;12.184;2023-07-29T12:59:54;28.50;99.90
2893;DHT22;1456;51.840;12.184;2023-07-29T13:02:19;29.50;99.90
2893;DHT22;1456;51.840;12.184;2023-07-29T13:04:45;29.90;99.90
2893;DHT22;1456;51.840;12.184;2023-07-29T13:07:11;30.70;99.90
2893;DHT22;1456;51.840;12.184;2023-07-29T13:09:36;31.20;99.90
2893;DHT22;1456;51.840;12.184;2023-07-29T13:12:02;32.50;99.90
2893;DHT22;1456;51.840;12.184;2023-07-29T13:14:28;32.90;98.50
2893;DHT22;1456;51.840;12.184;2023-07-29T13:16:55;32.20;99.40
2893;DHT22;1456;51.840;12.184;2023-07-29T13:19:20;31.10;99.90
2893;DHT22;1456;51.840;12.184;2023-07-29T13:21:46;29.20;99.90
2893;DHT22;1456;51.840;12.184;2023-07-29T13:24:13;28.20;99.90
2893;DHT22;1456;51.840;12.184;2023-07-29T13:26:39;27.30;99.90
2893;DHT22;1456;51.840;12.184;2023-07-29T13:29:07;26.50;99.90
2893;DHT22;1456;51.840;12.184;2023-07-29T13:31:32;25.90;99.90
2893;DHT22;1456;51.840;12.184;2023-07-29T13:33:58;25.70;99.90
2893;DHT22;1456;51.840;12.184;2023-07-29T13:36:24;25.60;99.90
2893;DHT22;1456;51.840;12.184;2023-07-29T13:38:49;25.40;99.90
2893;DHT22;1456;51.840;12.184;2023-07-29T13:41:15;25.30;99.90
2893;DHT22;1456;51.840;12.184;2023-07-29T13:43:41;24.90;99.90
2893;DHT22;1456;51.840;12.184;2023-07-29T13:46:07;25.40;99.90
2893;DHT22;1456;51.840;12.184;2023-07-29T13:48:32;26.90;99.90
2893;DHT22;1456;51.840;12.184;2023-07-29T13:50:58;27.80;99.90
2893;DHT22;1456;51.840;12.184;2023-07-29T13:53:24;28.60;99.90
2893;DHT22;1456;51.840;12.184;2023-07-29T13:55:51;28.90;99.90
2893;DHT22;1456;51.840;12.184;2023-07-29T13:58:16;29.00;99.90
2893;DHT22;1456;51.840;12.184;2023-07-29T14:00:42;28.90;99.90
2893;DHT22;1456;51.840;12.184;2023-07-29T14:03:08;27.80;99.90
2893;DHT22;1456;51.840;12.184;2023-07-29T14:05:35;27.80;99.90
2893;DHT22;1456;51.840;12.184;2023-07-29T14:08:01;27.40;99.90
2893;DHT22;1456;51.840;12.184;2023-07-29T14:10:27;27.20;99.90
2893;DHT22;1456;51.840;12.184;2023-07-29T14:12:53;26.80;99.90
2893;DHT22;1456;51.840;12.184;2023-07-29T14:15:20;26.30;99.90
2893;DHT22;1456;51.840;12.184;2023-07-29T14:17:46;25.90;99.90
2893;DHT22;1456;51.840;12.184;2023-07-29T14:20:12;27.10;99.90
2893;DHT22;1456;51.840;12.184;2023-07-29T14:22:39;29.10;99.90
2893;DHT22;1456;51.840;12.184;2023-07-29T14:25:06;29.80;99.90
2893;DHT22;1456;51.840;12.184;2023-07-29T14:27:34;31.70;99.90
2893;DHT22;1456;51.840;12.184;2023-07-29T14:29:59;35.00;96.50
2893;DHT22;1456;51.840;12.184;2023-07-29T14:32:25;37.00;92.30
2893;DHT22;1456;51.840;12.184;2023-07-29T14:34:50;37.60;84.40
2893;DHT22;1456;51.840;12.184;2023-07-29T14:37:16;37.20;81.10
2893;DHT22;1456;51.840;12.184;2023-07-29T14:39:42;35.50;81.80
2893;DHT22;1456;51.840;12.184;2023-07-29T14:42:07;33.50;84.90
2893;DHT22;1456;51.840;12.184;2023-07-29T14:44:33;32.20;88.30
2893;DHT22;1456;51.840;12.184;2023-07-29T14:46:59;30.40;91.40
2893;DHT22;1456;51.840;12.184;2023-07-29T14:49:24;29.70;94.20
2893;DHT22;1456;51.840;12.184;2023-07-29T14:51:50;29.30;93.50
2893;DHT22;1456;51.840;12.184;2023-07-29T14:54:17;29.10;93.30
2893;DHT22;1456;51.840;12.184;2023-07-29T14:56:42;29.00;94.20
2893;DHT22;1456;51.840;12.184;2023-07-29T14:59:09;29.00;94.90
2893;DHT22;1456;51.840;12.184;2023-07-29T15:01:35;29.30;94.80
2893;DHT22;1456;51.840;12.184;2023-07-29T15:04:01;29.70;94.50
2893;DHT22;1456;51.840;12.184;2023-07-29T15:06:26;29.90;94.10
2893;DHT22;1456;51.840;12.184;2023-07-29T15:08:54;29.90;94.00
2893;DHT22;1456;51.840;12.184;2023-07-29T15:11:20;29.20;95.00
2893;DHT22;1456;51.840;12.184;2023-07-29T15:13:46;28.70;95.00
2893;DHT22;1456;51.840;12.184;2023-07-29T15:16:11;28.40;94.00
2893;DHT22;1456;51.840;12.184;2023-07-29T15:18:37;28.30;94.50
2893;DHT22;1456;51.840;12.184;2023-07-29T15:21:03;28.30;93.70
2893;DHT22;1456;51.840;12.184;2023-07-29T15:23:28;28.30;95.20
2893;DHT22;1456;51.840;12.184;2023-07-29T15:25:55;28.40;95.10
2893;DHT22;1456;51.840;12.184;2023-07-29T15:28:20;28.70;95.90
2893;DHT22;1456;51.840;12.184;2023-07-29T15:30:47;29.30;95.10
2893;DHT22;1456;51.840;12.184;2023-07-29T15:33:13;30.00;94.30
2893;DHT22;1456;51.840;12.184;2023-07-29T15:35:39;30.30;93.70
2893;DHT22;1456;51.840;12.184;2023-07-29T15:38:05;30.20;92.70
2893;DHT22;1456;51.840;12.184;2023-07-29T15:40:31;29.90;92.40
2893;DHT22;1456;51.840;12.184;2023-07-29T15:42:58;29.20;93.40
2893;DHT22;1456;51.840;12.184;2023-07-29T15:45:24;28.70;93.20
2893;DHT22;1456;51.840;12.184;2023-07-29T15:47:50;28.40;95.10